sensor_id;sensor_type;location;lat;lon;timestamp;pressure;altitude;pressure_sealevel;temperature;humidity
20455;BME280;10386;54.314;10.022;2023-02-19T00:01:42;100688.09;;;4.39;100.00
20455;BME280;10386;54.314;10.022;2023-02-19T00:04:15;100687.81;;;4.45;100.00
20455;BME280;10386;54.314;10.022;2023-02-19T00:06:45;100685.19;;;4.44;100.00
20455;BME280;10386;54.314;10.022;2023-02-19T00:09:13;100685.91;;;4.47;100.00
20455;BME280;10386;54.314;10.022;2023-02-19T00:11:41;100690.41;;;4.47;100.00
20455;BME280;10386;54.314;10.022;2023-02-19T00:14:08;100684.16;;;4.46;100.00
20455;BME280;10386;54.314;10.022;2023-02-19T00:16:38;100696.66;;;4.47;100.00
20455;BME280;10386;54.314;10.022;2023-02-19T00:19:09;100692.38;;;4.43;100.00
20455;BME280;10386;54.314;10.022;2023-02-19T00:21:37;100690.56;;;4.44;100.00
20455;BME280;10386;54.314;10.022;2023-02-19T00:24:05;100692.38;;;4.43;100.00
20455;BME280;10386;54.314;10.022;2023-02-19T00:26:32;100688.09;;;4.39;100.00
20455;BME280;10386;54.314;10.022;2023-02-19T00:28:59;100690.56;;;4.44;100.00
20455;BME280;10386;54.314;10.022;2023-02-19T00:31:31;100686.28;;;4.40;100.00
20455;BME280;10386;54.314;10.022;2023-02-19T00:34:01;100683.44;;;4.43;100.00
20455;BME280;10386;54.314;10.022;2023-02-19T00:36:29;100687.94;;;4.42;100.00
20455;BME280;10386;54.314;10.022;2023-02-19T00:38:56;100678.22;;;4.40;100.00
20455;BME280;10386;54.314;10.022;2023-02-19T00:41:24;100681.69;;;4.42;100.00
20455;BME280;10386;54.314;10.022;2023-02-19T00:43:55;100683.28;;;4.46;100.00
20455;BME280;10386;54.314;10.022;2023-02-19T00:46:31;100679.75;;;4.45;100.00
20455;BME280;10386;54.314;10.022;2023-02-19T00:48:58;100693.09;;;4.47;100.00
20455;BME280;10386;54.314;10.022;2023-02-19T00:51:30;100687.66;;;4.48;100.00
20455;BME280;10386;54.314;10.022;2023-02-19T00:53:57;100683.44;;;4.43;100.00
20455;BME280;10386;54.314;10.022;2023-02-19T00:56:24;100683.97;;;4.32;100.00
20455;BME280;10386;54.314;10.022;2023-02-19T00:58:52;100676.84;;;4.31;100.00
20455;BME280;10386;54.314;10.022;2023-02-19T01:01:19;100677.34;;;4.39;100.00
20455;BME280;10386;54.314;10.022;2023-02-19T01:03:46;100677.22;;;4.42;100.00
20455;BME280;10386;54.314;10.022;2023-02-19T01:06:14;100679.75;;;4.45;100.00
20455;BME280;10386;54.314;10.022;2023-02-19T01:08:42;100670.00;;;4.43;100.00
20455;BME280;10386;54.314;10.022;2023-02-19T01:11:10;100674.38;;;4.45;100.00
20455;BME280;10386;54.314;10.022;2023-02-19T01:13:38;100670.09;;;4.41;100.00
20455;BME280;10386;54.314;10.022;2023-02-19T01:16:07;100669.78;;;4.47;100.00
20455;BME280;10386;54.314;10.022;2023-02-19T01:18:35;100669.00;;;4.45;100.00
20455;BME280;10386;54.314;10.022;2023-02-19T01:21:06;100666.22;;;4.47;100.00
20455;BME280;10386;54.314;10.022;2023-02-19T01:23:34;100666.31;;;4.45;100.00
20455;BME280;10386;54.314;10.022;2023-02-19T01:26:06;100667.09;;;4.47;100.00
20455;BME280;10386;54.314;10.022;2023-02-19T01:28:33;100664.41;;;4.47;100.00
20455;BME280;10386;54.314;10.022;2023-02-19T01:31:06;100665.50;;;4.43;100.00
20455;BME280;10386;54.314;10.022;2023-02-19T01:33:33;100666.81;;;4.35;100.00
20455;BME280;10386;54.314;10.022;2023-02-19T01:36:04;100666.31;;;4.45;100.00
20455;BME280;10386;54.314;10.022;2023-02-19T01:38:31;100667.91;;;4.49;100.00
20455;BME280;10386;54.314;10.022;2023-02-19T01:41:00;100667.25;;;4.44;100.00
20455;BME280;10386;54.314;10.022;2023-02-19T01:43:27;100663.69;;;4.44;100.00
20455;BME280;10386;54.314;10.022;2023-02-19T01:45:54;100662.25;;;4.37;100.00
20455;BME280;10386;54.314;10.022;2023-02-19T01:48:27;100666.59;;;4.39;100.00
20455;BME280;10386;54.314;10.022;2023-02-19T01:51:11;100666.75;;;4.36;100.00
20455;BME280;10386;54.314;10.022;2023-02-19T01:53:45;100664.88;;;4.38;100.00
20455;BME280;10386;54.314;10.022;2023-02-19T01:56:14;100659.25;;;4.43;100.00
20455;BME280;10386;54.314;10.022;2023-02-19T01:58:43;100662.31;;;4.35;100.00
20455;BME280;10386;54.314;10.022;2023-02-19T02:01:10;100667.69;;;4.35;100.00
20455;BME280;10386;54.314;10.022;2023-02-19T02:03:40;100659.50;;;4.38;100.00
20455;BME280;10386;54.314;10.022;2023-02-19T02:06:29;100659.56;;;4.37;100.00
20455;BME280;10386;54.314;10.022;2023-02-19T02:08:57;100650.63;;;4.36;100.00
20455;BME280;10386;54.314;10.022;2023-02-19T02:11:48;100656.72;;;4.40;100.00
20455;BME280;10386;54.314;10.022;2023-02-19T02:14:19;100647.69;;;4.41;100.00
20455;BME280;10386;54.314;10.022;2023-02-19T02:16:54;100648.91;;;4.35;100.00
20455;BME280;10386;54.314;10.022;2023-02-19T02:22:30;100646.25;;;4.34;100.00
20455;BME280;10386;54.314;10.022;2023-02-19T02:25:19;100639.78;;;4.38;100.00
20455;BME280;10386;54.314;10.022;2023-02-19T02:30:53;100619.34;;;4.35;100.00
20455;BME280;10386;54.314;10.022;2023-02-19T02:33:25;100626.13;;;4.25;100.00
20455;BME280;10386;54.314;10.022;2023-02-19T02:35:58;100630.53;;;4.26;100.00
20455;BME280;10386;54.314;10.022;2023-02-19T02:38:29;100625.53;;;4.19;100.00
20455;BME280;10386;54.314;10.022;2023-02-19T02:40:57;100624.88;;;4.14;100.00
20455;BME280;10386;54.314;10.022;2023-02-19T02:43:24;100626.81;;;4.10;100.00
20455;BME280;10386;54.314;10.022;2023-02-19T02:45:51;100632.34;;;4.07;100.00
20455;BME280;10386;54.314;10.022;2023-02-19T02:50:55;100632.28;;;4.09;100.00
20455;BME280;10386;54.314;10.022;2023-02-19T02:56:22;100649.56;;;4.03;100.00
20455;BME280;10386;54.314;10.022;2023-02-19T02:58:51;100656.81;;;4.02;100.00
20455;BME280;10386;54.314;10.022;2023-02-19T03:04:46;100657.91;;;3.98;100.00
20455;BME280;10386;54.314;10.022;2023-02-19T03:10:22;100668.50;;;4.01;100.00
20455;BME280;10386;54.314;10.022;2023-02-19T03:12:51;100661.53;;;3.97;100.00
20455;BME280;10386;54.314;10.022;2023-02-19T03:15:50;100678.69;;;3.94;100.00
20455;BME280;10386;54.314;10.022;2023-02-19T03:18:30;100684.25;;;3.90;100.00
20455;BME280;10386;54.314;10.022;2023-02-19T03:21:19;100687.22;;;3.84;100.00
20455;BME280;10386;54.314;10.022;2023-02-19T03:23:47;100692.31;;;3.90;100.00
20455;BME280;10386;54.314;10.022;2023-02-19T03:26:35;100701.63;;;3.81;100.00
20455;BME280;10386;54.314;10.022;2023-02-19T03:29:04;100701.78;;;3.78;100.00
20455;BME280;10386;54.314;10.022;2023-02-19T03:31:55;100710.13;;;3.72;100.00
20455;BME280;10386;54.314;10.022;2023-02-19T03:34:30;100715.03;;;3.63;100.00
20455;BME280;10386;54.314;10.022;2023-02-19T03:37:05;100722.97;;;3.66;100.00
20455;BME280;10386;54.314;10.022;2023-02-19T03:39:38;100736.94;;;3.54;100.00
20455;BME280;10386;54.314;10.022;2023-02-19T03:45:05;100730.63;;;3.55;100.00
20455;BME280;10386;54.314;10.022;2023-02-19T03:47:45;100735.31;;;3.50;100.00
20455;BME280;10386;54.314;10.022;2023-02-19T03:50:29;100740.97;;;3.44;100.00
20455;BME280;10386;54.314;10.022;2023-02-19T03:59:07;100775.34;;;3.34;100.00
20455;BME280;10386;54.314;10.022;2023-02-19T04:01:49;100780.97;;;3.28;100.00
20455;BME280;10386;54.314;10.022;2023-02-19T04:04:31;100789.28;;;3.22;100.00
20455;BME280;10386;54.314;10.022;2023-02-19T04:07:00;100785.94;;;3.17;100.00
20455;BME280;10386;54.314;10.022;2023-02-19T04:09:35;100789.53;;;3.16;100.00
20455;BME280;10386;54.314;10.022;2023-02-19T04:12:05;100797.63;;;3.15;100.00
20455;BME280;10386;54.314;10.022;2023-02-19T04:14:39;100791.28;;;3.17;100.00
20455;BME280;10386;54.314;10.022;2023-02-19T04:17:33;100798.66;;;3.12;100.00
20455;BME280;10386;54.314;10.022;2023-02-19T04:20:05;100802.31;;;3.10;100.00
20455;BME280;10386;54.314;10.022;2023-02-19T04:22:35;100808.63;;;3.09;100.00
20455;BME280;10386;54.314;10.022;2023-02-19T04:25:02;100808.25;;;3.18;100.00
20455;BME280;10386;54.314;10.022;2023-02-19T04:27:29;100818.03;;;3.19;100.00
20455;BME280;10386;54.314;10.022;2023-02-19T04:29:56;100824.31;;;3.18;100.00
20455;BME280;10386;54.314;10.022;2023-02-19T04:32:23;100827.09;;;3.16;100.00
20455;BME280;10386;54.314;10.022;2023-02-19T04:34:50;100828.38;;;3.28;100.00
20455;BME280;10386;54.314;10.022;2023-02-19T04:37:19;100835.59;;;3.26;100.00
20455;BME280;10386;54.314;10.022;2023-02-19T04:39:46;100830.19;;;3.27;100.00
20455;BME280;10386;54.314;10.022;2023-02-19T04:42:13;100834.88;;;3.22;100.00
20455;BME280;10386;54.314;10.022;2023-02-19T04:44:39;100842.00;;;3.23;100.00
20455;BME280;10386;54.314;10.022;2023-02-19T04:47:06;100835.75;;;3.23;100.00
20455;BME280;10386;54.314;10.022;2023-02-19T04:49:33;100838.41;;;3.23;100.00
20455;BME280;10386;54.314;10.022;2023-02-19T04:51:59;100840.13;;;3.25;100.00
20455;BME280;10386;54.314;10.022;2023-02-19T04:54:26;100844.13;;;3.15;100.00
20455;BME280;10386;54.314;10.022;2023-02-19T04:56:53;100840.28;;;3.21;100.00
20455;BME280;10386;54.314;10.022;2023-02-19T04:59:19;100840.28;;;3.21;100.00
20455;BME280;10386;54.314;10.022;2023-02-19T05:01:46;100844.97;;;3.16;100.00
20455;BME280;10386;54.314;10.022;2023-02-19T05:04:13;100847.16;;;3.28;100.00
20455;BME280;10386;54.314;10.022;2023-02-19T05:06:40;100858.50;;;3.13;100.00
20455;BME280;10386;54.314;10.022;2023-02-19T05:09:06;100855.94;;;3.10;100.00
20455;BME280;10386;54.314;10.022;2023-02-19T05:11:34;100858.59;;;3.11;100.00
20455;BME280;10386;54.314;10.022;2023-02-19T05:14:01;100860.09;;;3.18;100.00
20455;BME280;10386;54.314;10.022;2023-02-19T05:16:27;100850.72;;;3.28;100.00
20455;BME280;10386;54.314;10.022;2023-02-19T05:18:54;100861.75;;;3.21;100.00
20455;BME280;10386;54.314;10.022;2023-02-19T05:21:21;100866.97;;;3.24;100.00
20455;BME280;10386;54.314;10.022;2023-02-19T05:23:48;100869.50;;;3.28;100.00
20455;BME280;10386;54.314;10.022;2023-02-19T05:26:20;100881.09;;;3.29;100.00
20455;BME280;10386;54.314;10.022;2023-02-19T05:28:50;100881.47;;;3.20;100.00
20455;BME280;10386;54.314;10.022;2023-02-19T05:31:20;100878.84;;;3.18;100.00
20455;BME280;10386;54.314;10.022;2023-02-19T05:33:47;100881.09;;;3.29;100.00
20455;BME280;10386;54.314;10.022;2023-02-19T05:36:18;100876.88;;;3.23;100.00
20455;BME280;10386;54.314;10.022;2023-02-19T05:38:45;100879.34;;;3.28;100.00
20455;BME280;10386;54.314;10.022;2023-02-19T05:41:26;100881.09;;;3.29;100.00
20455;BME280;10386;54.314;10.022;2023-02-19T05:43:53;100883.03;;;3.25;100.00
20455;BME280;10386;54.314;10.022;2023-02-19T05:46:23;100895.63;;;3.23;100.00
20455;BME280;10386;54.314;10.022;2023-02-19T05:48:51;100898.13;;;3.28;100.00
20455;BME280;10386;54.314;10.022;2023-02-19T05:51:20;100908.53;;;3.35;100.00
20455;BME280;10386;54.314;10.022;2023-02-19T05:53:48;100924.38;;;3.20;100.00
20455;BME280;10386;54.314;10.022;2023-02-19T05:59:22;100930.38;;;3.26;100.00
20455;BME280;10386;54.314;10.022;2023-02-19T06:01:52;100937.78;;;3.20;100.00
20455;BME280;10386;54.314;10.022;2023-02-19T06:04:19;100933.00;;;3.28;100.00
20455;BME280;10386;54.314;10.022;2023-02-19T06:06:46;100939.28;;;3.27;100.00
20455;BME280;10386;54.314;10.022;2023-02-19T06:09:13;100940.19;;;3.27;100.00
20455;BME280;10386;54.314;10.022;2023-02-19T06:11:40;100951.41;;;3.15;100.00
20455;BME280;10386;54.314;10.022;2023-02-19T06:14:11;100961.56;;;3.07;100.00
20455;BME280;10386;54.314;10.022;2023-02-19T06:16:38;100968.81;;;3.04;100.00
20455;BME280;10386;54.314;10.022;2023-02-19T06:19:05;100972.31;;;3.06;100.00
20455;BME280;10386;54.314;10.022;2023-02-19T06:21:31;100975.34;;;2.97;100.00
20455;BME280;10386;54.314;10.022;2023-02-19T06:24:03;100985.97;;;3.00;100.00
20455;BME280;10386;54.314;10.022;2023-02-19T06:26:30;100985.28;;;2.95;100.00
20455;BME280;10386;54.314;10.022;2023-02-19T06:28:57;100978.97;;;2.96;100.00
20455;BME280;10386;54.314;10.022;2023-02-19T06:31:24;101003.34;;;2.90;100.00
20455;BME280;10386;54.314;10.022;2023-02-19T06:33:51;101006.03;;;2.90;100.00
20455;BME280;10386;54.314;10.022;2023-02-19T06:36:19;101019.22;;;2.94;100.00
20455;BME280;10386;54.314;10.022;2023-02-19T06:38:47;101003.88;;;2.99;100.00
20455;BME280;10386;54.314;10.022;2023-02-19T06:41:14;101009.97;;;3.03;100.00
20455;BME280;10386;54.314;10.022;2023-02-19T06:43:41;101021.78;;;2.97;100.00
20455;BME280;10386;54.314;10.022;2023-02-19T06:46:09;101020.16;;;2.93;100.00
20455;BME280;10386;54.314;10.022;2023-02-19T06:48:37;101031.53;;;3.00;100.00
20455;BME280;10386;54.314;10.022;2023-02-19T06:51:04;101034.13;;;3.03;100.00
20455;BME280;10386;54.314;10.022;2023-02-19T06:53:31;101032.38;;;3.02;100.00
20455;BME280;10386;54.314;10.022;2023-02-19T06:56:03;101040.75;;;2.93;100.00
20455;BME280;10386;54.314;10.022;2023-02-19T06:58:30;101065.00;;;2.90;100.00
20455;BME280;10386;54.314;10.022;2023-02-19T07:00:57;101071.41;;;2.86;100.00
20455;BME280;10386;54.314;10.022;2023-02-19T07:03:25;101076.88;;;2.83;100.00
20455;BME280;10386;54.314;10.022;2023-02-19T07:05:52;101079.56;;;2.83;100.00
20455;BME280;10386;54.314;10.022;2023-02-19T07:08:19;101082.06;;;2.87;100.00
20455;BME280;10386;54.314;10.022;2023-02-19T07:10:53;101087.63;;;2.81;100.00
20455;BME280;10386;54.314;10.022;2023-02-19T07:13:21;101091.69;;;2.93;100.00
20455;BME280;10386;54.314;10.022;2023-02-19T07:15:48;101097.16;;;2.90;100.00
20455;BME280;10386;54.314;10.022;2023-02-19T07:18:17;101098.91;;;2.91;100.00
20455;BME280;10386;54.314;10.022;2023-02-19T07:20:44;101104.88;;;2.99;100.00
20455;BME280;10386;54.314;10.022;2023-02-19T07:23:11;101105.59;;;3.04;100.00
20455;BME280;10386;54.314;10.022;2023-02-19T07:25:37;101111.72;;;3.07;100.00
20455;BME280;10386;54.314;10.022;2023-02-19T07:28:05;101104.44;;;3.11;100.00
20455;BME280;10386;54.314;10.022;2023-02-19T07:30:32;101124.91;;;3.13;100.00
20455;BME280;10386;54.314;10.022;2023-02-19T07:32:59;101127.63;;;3.12;100.00
20455;BME280;10386;54.314;10.022;2023-02-19T07:35:25;101126.44;;;3.20;100.00
20455;BME280;10386;54.314;10.022;2023-02-19T07:37:52;101137.66;;;3.31;100.00
20455;BME280;10386;54.314;10.022;2023-02-19T07:40:19;101151.75;;;3.36;100.00
20455;BME280;10386;54.314;10.022;2023-02-19T07:42:46;101161.28;;;3.45;100.00
20455;BME280;10386;54.314;10.022;2023-02-19T07:45:13;101166.19;;;3.57;100.00
20455;BME280;10386;54.314;10.022;2023-02-19T07:47:40;101170.53;;;3.61;100.00
20455;BME280;10386;54.314;10.022;2023-02-19T07:50:07;101180.72;;;3.74;100.00
20455;BME280;10386;54.314;10.022;2023-02-19T07:52:33;101195.97;;;3.74;100.00
20455;BME280;10386;54.314;10.022;2023-02-19T07:55:01;101215.47;;;3.79;100.00
20455;BME280;10386;54.314;10.022;2023-02-19T07:57:27;101211.50;;;3.89;100.00
20455;BME280;10386;54.314;10.022;2023-02-19T07:59:56;101220.09;;;3.98;100.00
20455;BME280;10386;54.314;10.022;2023-02-19T08:02:24;101229.00;;;3.99;100.00
20455;BME280;10386;54.314;10.022;2023-02-19T08:05:09;101224.16;;;4.08;100.00
20455;BME280;10386;54.314;10.022;2023-02-19T08:07:36;101231.16;;;4.12;100.00
20455;BME280;10386;54.314;10.022;2023-02-19T08:10:04;101240.78;;;4.17;100.00
20455;BME280;10386;54.314;10.022;2023-02-19T08:12:59;101242.13;;;4.29;100.00
20455;BME280;10386;54.314;10.022;2023-02-19T08:15:45;101249.47;;;4.47;100.00
20455;BME280;10386;54.314;10.022;2023-02-19T08:18:13;101266.97;;;4.35;100.00
20455;BME280;10386;54.314;10.022;2023-02-19T08:20:41;101277.16;;;4.49;100.00
20455;BME280;10386;54.314;10.022;2023-02-19T08:23:08;101299.09;;;4.38;100.00
20455;BME280;10386;54.314;10.022;2023-02-19T08:25:36;101300.50;;;4.48;100.00
20455;BME280;10386;54.314;10.022;2023-02-19T08:28:07;101322.00;;;4.48;100.00
20455;BME280;10386;54.314;10.022;2023-02-19T08:30:34;101324.31;;;4.57;100.00
20455;BME280;10386;54.314;10.022;2023-02-19T08:33:07;101345.63;;;4.62;100.00
20455;BME280;10386;54.314;10.022;2023-02-19T08:35:34;101346.81;;;4.78;100.00
20455;BME280;10386;54.314;10.022;2023-02-19T08:38:02;101361.50;;;4.69;100.00
20455;BME280;10386;54.314;10.022;2023-02-19T08:40:30;101377.03;;;4.84;100.00
20455;BME280;10386;54.314;10.022;2023-02-19T08:43:04;101379.91;;;5.01;100.00
20455;BME280;10386;54.314;10.022;2023-02-19T08:45:32;101398.50;;;5.07;100.00
20455;BME280;10386;54.314;10.022;2023-02-19T08:47:58;101415.28;;;5.14;100.00
20455;BME280;10386;54.314;10.022;2023-02-19T08:50:25;101431.72;;;5.06;100.00
20455;BME280;10386;54.314;10.022;2023-02-19T08:52:52;101443.72;;;5.21;100.00
20455;BME280;10386;54.314;10.022;2023-02-19T08:55:19;101466.63;;;5.31;100.00
20455;BME280;10386;54.314;10.022;2023-02-19T08:57:46;101478.03;;;5.37;100.00
20455;BME280;10386;54.314;10.022;2023-02-19T09:00:16;101483.69;;;5.31;100.00
20455;BME280;10386;54.314;10.022;2023-02-19T09:02:42;101494.06;;;5.40;100.00
20455;BME280;10386;54.314;10.022;2023-02-19T09:05:10;101506.88;;;5.56;100.00
20455;BME280;10386;54.314;10.022;2023-02-19T09:07:37;101525.91;;;5.52;100.00
20455;BME280;10386;54.314;10.022;2023-02-19T09:10:05;101540.00;;;5.58;100.00
20455;BME280;10386;54.314;10.022;2023-02-19T09:12:33;101556.50;;;5.72;100.00
20455;BME280;10386;54.314;10.022;2023-02-19T09:15:00;101564.63;;;5.71;100.00
20455;BME280;10386;54.314;10.022;2023-02-19T09:17:27;101569.75;;;5.77;100.00
20455;BME280;10386;54.314;10.022;2023-02-19T09:19:53;101590.94;;;5.87;100.00
20455;BME280;10386;54.314;10.022;2023-02-19T09:22:20;101607.31;;;6.04;100.00
20455;BME280;10386;54.314;10.022;2023-02-19T09:24:47;101637.72;;;5.85;100.00
20455;BME280;10386;54.314;10.022;2023-02-19T09:27:18;101642.19;;;5.86;100.00
20455;BME280;10386;54.314;10.022;2023-02-19T09:29:46;101645.81;;;6.08;100.00
20455;BME280;10386;54.314;10.022;2023-02-19T09:32:13;101669.13;;;6.09;100.00
20455;BME280;10386;54.314;10.022;2023-02-19T09:34:39;101686.53;;;6.00;100.00
20455;BME280;10386;54.314;10.022;2023-02-19T09:37:07;101689.91;;;6.05;100.00
20455;BME280;10386;54.314;10.022;2023-02-19T09:39:34;101708.19;;;6.20;100.00
20455;BME280;10386;54.314;10.022;2023-02-19T09:42:08;101718.78;;;6.25;100.00
20455;BME280;10386;54.314;10.022;2023-02-19T09:44:38;101740.59;;;6.19;100.00
20455;BME280;10386;54.314;10.022;2023-02-19T09:47:32;101764.59;;;6.48;100.00
20455;BME280;10386;54.314;10.022;2023-02-19T09:50:07;101784.91;;;6.35;100.00
20455;BME280;10386;54.314;10.022;2023-02-19T09:52:53;101805.31;;;6.19;100.00
20455;BME280;10386;54.314;10.022;2023-02-19T09:55:33;101817.63;;;6.26;100.00
20455;BME280;10386;54.314;10.022;2023-02-19T10:00:52;101853.25;;;6.34;100.00
20455;BME280;10386;54.314;10.022;2023-02-19T10:03:28;101885.63;;;6.34;100.00
20455;BME280;10386;54.314;10.022;2023-02-19T10:06:04;101898.84;;;6.41;100.00
20455;BME280;10386;54.314;10.022;2023-02-19T10:08:35;101914.00;;;6.44;100.00
20455;BME280;10386;54.314;10.022;2023-02-19T10:11:04;101929.22;;;6.46;100.00
20455;BME280;10386;54.314;10.022;2023-02-19T10:13:38;101946.75;;;6.33;100.00
20455;BME280;10386;54.314;10.022;2023-02-19T10:16:11;101954.66;;;6.39;100.00
20455;BME280;10386;54.314;10.022;2023-02-19T10:18:42;101962.53;;;6.45;100.00
20455;BME280;10386;54.314;10.022;2023-02-19T10:21:16;101984.72;;;6.52;100.00
20455;BME280;10386;54.314;10.022;2023-02-19T10:23:56;102002.06;;;6.45;100.00
20455;BME280;10386;54.314;10.022;2023-02-19T10:26:25;102009.81;;;6.55;100.00
20455;BME280;10386;54.314;10.022;2023-02-19T10:28:52;102020.47;;;6.58;100.00
20455;BME280;10386;54.314;10.022;2023-02-19T10:31:23;102020.97;;;6.69;100.00
20455;BME280;10386;54.314;10.022;2023-02-19T10:33:55;102025.75;;;6.61;100.00
20455;BME280;10386;54.314;10.022;2023-02-19T10:39:01;102042.09;;;6.57;100.00
20455;BME280;10386;54.314;10.022;2023-02-19T10:41:28;102055.03;;;6.72;100.00
20455;BME280;10386;54.314;10.022;2023-02-19T10:46:28;102076.47;;;6.76;100.00
20455;BME280;10386;54.314;10.022;2023-02-19T10:49:03;102074.44;;;6.82;100.00
20455;BME280;10386;54.314;10.022;2023-02-19T10:51:33;102074.53;;;6.79;100.00
20455;BME280;10386;54.314;10.022;2023-02-19T10:54:15;102076.00;;;6.89;100.00
20455;BME280;10386;54.314;10.022;2023-02-19T10:56:42;102082.69;;;6.78;100.00
20455;BME280;10386;54.314;10.022;2023-02-19T10:59:26;102098.19;;;6.73;100.00
20455;BME280;10386;54.314;10.022;2023-02-19T11:02:01;102103.69;;;6.70;100.00
20455;BME280;10386;54.314;10.022;2023-02-19T11:04:30;102093.50;;;6.78;100.00
20455;BME280;10386;54.314;10.022;2023-02-19T11:07:14;102094.53;;;6.74;100.00
20455;BME280;10386;54.314;10.022;2023-02-19T11:09:48;102103.09;;;6.86;100.00
20455;BME280;10386;54.314;10.022;2023-02-19T11:12:30;102113.72;;;6.91;100.00
20455;BME280;10386;54.314;10.022;2023-02-19T11:15:02;102120.97;;;7.13;100.00
20455;BME280;10386;54.314;10.022;2023-02-19T11:17:38;102111.13;;;6.88;100.00
20455;BME280;10386;54.314;10.022;2023-02-19T11:20:14;102117.19;;;6.94;100.00
20455;BME280;10386;54.314;10.022;2023-02-19T11:22:43;102116.97;;;7.00;100.00
20455;BME280;10386;54.314;10.022;2023-02-19T11:30:36;102116.28;;;7.18;100.00
20455;BME280;10386;54.314;10.022;2023-02-19T11:35:39;102092.34;;;7.09;100.00
20455;BME280;10386;54.314;10.022;2023-02-19T11:38:08;102096.34;;;7.22;100.00
20455;BME280;10386;54.314;10.022;2023-02-19T11:55:21;102112.03;;;7.59;100.00
20455;BME280;10386;54.314;10.022;2023-02-19T11:58:28;102123.72;;;7.59;100.00
20455;BME280;10386;54.314;10.022;2023-02-19T12:04:25;102138.78;;;7.66;100.00
20455;BME280;10386;54.314;10.022;2023-02-19T12:09:40;102128.75;;;7.45;100.00
20455;BME280;10386;54.314;10.022;2023-02-19T12:12:19;102148.69;;;7.66;100.00
20455;BME280;10386;54.314;10.022;2023-02-19T12:25:45;102147.16;;;7.82;100.00
20455;BME280;10386;54.314;10.022;2023-02-19T12:47:04;102127.50;;;8.00;100.00
20455;BME280;10386;54.314;10.022;2023-02-19T12:49:38;102121.78;;;8.07;100.00
20455;BME280;10386;54.314;10.022;2023-02-19T12:52:18;102105.00;;;7.99;100.00
20455;BME280;10386;54.314;10.022;2023-02-19T12:54:53;102088.69;;;8.01;100.00
20455;BME280;10386;54.314;10.022;2023-02-19T12:57:32;102094.31;;;7.96;100.00
20455;BME280;10386;54.314;10.022;2023-02-19T13:00:21;102116.56;;;8.03;100.00
20455;BME280;10386;54.314;10.022;2023-02-19T13:05:39;102056.50;;;8.16;100.00
20455;BME280;10386;54.314;10.022;2023-02-19T13:13:46;102018.72;;;7.93;100.00
20455;BME280;10386;54.314;10.022;2023-02-19T13:16:16;102029.53;;;7.93;100.00
20455;BME280;10386;54.314;10.022;2023-02-19T13:18:47;102037.38;;;7.99;100.00
20455;BME280;10386;54.314;10.022;2023-02-19T13:21:18;102049.28;;;7.95;100.00
20455;BME280;10386;54.314;10.022;2023-02-19T13:24:08;102049.28;;;7.95;100.00
20455;BME280;10386;54.314;10.022;2023-02-19T13:35:48;102068.59;;;7.86;100.00
20455;BME280;10386;54.314;10.022;2023-02-19T13:37:39;102081.91;;;7.91;100.00
20455;BME280;10386;54.314;10.022;2023-02-19T13:43:01;102114.66;;;7.83;100.00
20455;BME280;10386;54.314;10.022;2023-02-19T13:45:38;102124.78;;;7.78;100.00
20455;BME280;10386;54.314;10.022;2023-02-19T13:50:41;102175.59;;;7.92;100.00
20455;BME280;10386;54.314;10.022;2023-02-19T14:04:41;102189.94;;;7.94;100.00
20455;BME280;10386;54.314;10.022;2023-02-19T14:31:02;102086.47;;;7.21;100.00
20455;BME280;10386;54.314;10.022;2023-02-19T14:33:37;102086.69;;;7.15;100.00
20455;BME280;10386;54.314;10.022;2023-02-19T14:41:36;102092.56;;;7.26;100.00
20455;BME280;10386;54.314;10.022;2023-02-19T14:44:06;102104.22;;;7.28;100.00
20455;BME280;10386;54.314;10.022;2023-02-19T14:46:49;102127.53;;;7.31;100.00
20455;BME280;10386;54.314;10.022;2023-02-19T14:51:54;102163.25;;;7.39;100.00
20455;BME280;10386;54.314;10.022;2023-02-19T14:54:38;102183.75;;;7.44;100.00
20455;BME280;10386;54.314;10.022;2023-02-19T14:57:14;102184.88;;;7.39;100.00
20455;BME280;10386;54.314;10.022;2023-02-19T14:59:51;102195.09;;;7.29;100.00
20455;BME280;10386;54.314;10.022;2023-02-19T15:02:19;102203.56;;;7.19;100.00
20455;BME280;10386;54.314;10.022;2023-02-19T15:04:52;102207.63;;;7.07;100.00
20455;BME280;10386;54.314;10.022;2023-02-19T15:07:22;102205.47;;;6.92;100.00
20455;BME280;10386;54.314;10.022;2023-02-19T15:09:52;102222.69;;;6.88;100.00
20455;BME280;10386;54.314;10.022;2023-02-19T15:12:25;102228.09;;;6.88;100.00
20455;BME280;10386;54.314;10.022;2023-02-19T15:14:54;102220.97;;;6.86;100.00
20455;BME280;10386;54.314;10.022;2023-02-19T15:17:31;102217.41;;;6.85;100.00
20455;BME280;10386;54.314;10.022;2023-02-19T15:20:08;102211.19;;;6.83;100.00
20455;BME280;10386;54.314;10.022;2023-02-19T15:22:38;102225.59;;;6.82;100.00
20455;BME280;10386;54.314;10.022;2023-02-19T15:25:11;102232.75;;;6.83;100.00
20455;BME280;10386;54.314;10.022;2023-02-19T15:27:41;102220.09;;;6.85;100.00
20455;BME280;10386;54.314;10.022;2023-02-19T15:30:26;102228.34;;;6.81;100.00
20455;BME280;10386;54.314;10.022;2023-02-19T15:32:57;102228.47;;;6.77;100.00
20455;BME280;10386;54.314;10.022;2023-02-19T15:35:28;102235.84;;;6.72;100.00
20455;BME280;10386;54.314;10.022;2023-02-19T15:37:55;102236.16;;;6.63;100.00
20455;BME280;10386;54.314;10.022;2023-02-19T15:40:28;102241.53;;;6.63;100.00
20455;BME280;10386;54.314;10.022;2023-02-19T15:42:57;102234.50;;;6.59;100.00